createdAt,value
2022-08-28T00:02:18.402Z,4.204
2022-08-28T00:07:19.780Z,4.204
2022-08-28T00:12:21.856Z,4.204
2022-08-28T00:17:23.967Z,4.204
2022-08-28T00:22:25.571Z,4.204
2022-08-28T00:27:27.376Z,4.204
2022-08-28T00:32:29.428Z,4.202
2022-08-28T00:37:31.300Z,4.202
2022-08-28T00:42:33.438Z,4.202
2022-08-28T00:47:35.462Z,4.202
2022-08-28T00:52:37.403Z,4.202
2022-08-28T00:57:38.977Z,4.202
2022-08-28T01:02:40.987Z,4.202
2022-08-28T01:07:42.312Z,4.202
2022-08-28T01:12:43.541Z,4.202
2022-08-28T01:17:45.124Z,4.202
2022-08-28T01:22:46.377Z,4.2
2022-08-28T01:27:48.201Z,4.2
2022-08-28T01:32:49.619Z,4.2
2022-08-28T01:37:50.836Z,4.2
2022-08-28T01:42:52.761Z,4.2
2022-08-28T01:47:54.566Z,4.2
2022-08-28T01:52:55.971Z,4.2
2022-08-28T01:57:57.276Z,4.2
2022-08-28T02:02:59.270Z,4.2
2022-08-28T02:08:01.108Z,4.2
2022-08-28T02:13:02.734Z,4.2
2022-08-28T02:48:15.981Z,4.198
2022-08-28T02:53:15.648Z,4.198
2022-08-28T02:58:17.509Z,4.198
2022-08-28T03:03:18.875Z,4.198
2022-08-28T03:08:20.679Z,4.198
2022-08-28T03:18:24.285Z,4.198
2022-08-28T03:23:26.357Z,4.198
2022-08-28T03:28:27.831Z,4.198
2022-08-28T03:43:32.549Z,4.198
2022-08-28T03:48:33.872Z,4.198
2022-08-28T03:53:35.978Z,4.198
2022-08-28T03:58:37.623Z,4.196
2022-08-28T04:03:39.348Z,4.196
2022-08-28T04:08:41.072Z,4.196
2022-08-28T04:13:42.729Z,4.196
2022-08-28T04:18:44.656Z,4.196
2022-08-28T04:23:46.527Z,4.196
2022-08-28T04:28:48.249Z,4.196
2022-08-28T04:33:49.916Z,4.196
2022-08-28T04:38:51.817Z,4.196
2022-08-28T04:43:53.128Z,4.196
2022-08-28T04:48:55.213Z,4.196
2022-08-28T04:53:56.691Z,4.196
2022-08-28T04:58:58.355Z,4.196
2022-08-28T05:04:00.522Z,4.196
2022-08-28T05:09:02.295Z,4.196
2022-08-28T05:14:03.710Z,4.194
2022-08-28T05:19:05.349Z,4.194
2022-08-28T05:24:07.291Z,4.194
2022-08-28T05:29:09.118Z,4.194
2022-08-28T05:34:10.923Z,4.194
2022-08-28T05:39:12.883Z,4.194
2022-08-28T05:44:14.783Z,4.194
2022-08-28T05:49:16.569Z,4.194
2022-08-28T05:54:17.957Z,4.194
2022-08-28T05:59:19.575Z,4.194
2022-08-28T06:04:21.520Z,4.194
2022-08-28T06:09:28.332Z,4.194
2022-08-28T06:14:24.661Z,4.194
2022-08-28T06:19:26.010Z,4.194
2022-08-28T06:24:27.473Z,4.192
2022-08-28T06:29:28.842Z,4.192
2022-08-28T06:34:30.093Z,4.192
2022-08-28T06:39:31.377Z,4.192
2022-08-28T06:44:32.654Z,4.192
2022-08-28T06:49:34.443Z,4.192
2022-08-28T06:54:36.578Z,4.194
2022-08-28T06:59:38.452Z,4.194
2022-08-28T07:04:39.936Z,4.194
2022-08-28T07:09:41.371Z,4.194
2022-08-28T07:09:47.823Z,4.194
2022-08-28T07:14:49.246Z,4.194
2022-08-28T07:19:51.107Z,4.194
2022-08-28T07:24:53.063Z,4.194
2022-08-28T07:29:55.198Z,4.194
2022-08-28T07:34:56.645Z,4.194
2022-08-28T07:39:58.755Z,4.194
2022-08-28T07:45:00.772Z,4.194
2022-08-28T07:50:02.638Z,4.194
2022-08-28T07:55:04.361Z,4.194
2022-08-28T08:00:06.466Z,4.194
2022-08-28T08:05:08.313Z,4.192
2022-08-28T08:10:10.297Z,4.194
2022-08-28T08:15:12.252Z,4.192
2022-08-28T08:20:13.803Z,4.194
2022-08-28T08:25:15.412Z,4.194
2022-08-28T08:30:17.221Z,4.194
2022-08-28T08:35:19.154Z,4.196
2022-08-28T08:40:20.497Z,4.196
2022-08-28T08:45:22.600Z,4.196
2022-08-28T08:50:24.320Z,4.196
2022-08-28T08:55:25.808Z,4.194
2022-08-28T09:00:27.847Z,4.196
2022-08-28T09:05:29.720Z,4.196
2022-08-28T09:10:31.891Z,4.196
2022-08-28T09:15:33.405Z,4.196
2022-08-28T09:20:35.043Z,4.198
2022-08-28T09:25:36.385Z,4.198
2022-08-28T09:30:37.704Z,4.196
2022-08-28T09:35:39.229Z,4.198
2022-08-28T09:40:41.241Z,4.196
2022-08-28T09:45:42.685Z,4.196
2022-08-28T09:50:44.181Z,4.196
2022-08-28T09:55:46.052Z,4.196
2022-08-28T10:00:47.879Z,4.196
2022-08-28T10:05:49.500Z,4.198
2022-08-28T10:10:51.479Z,4.198
2022-08-28T10:15:52.967Z,4.196
2022-08-28T10:20:54.316Z,4.198
2022-08-28T10:25:56.199Z,4.2
2022-08-28T10:30:58.269Z,4.2
2022-08-28T10:35:59.472Z,4.202
2022-08-28T10:41:01.510Z,4.202
2022-08-28T10:46:03.405Z,4.202
2022-08-28T10:51:05.407Z,4.2
2022-08-28T10:56:07.150Z,4.198
2022-08-28T11:01:09.155Z,4.198
2022-08-28T11:06:10.639Z,4.2
2022-08-28T11:11:12.557Z,4.2
2022-08-28T11:16:14.558Z,4.2
2022-08-28T11:21:15.862Z,4.2
2022-08-28T11:26:17.540Z,4.202
2022-08-28T11:31:29.265Z,4.202
2022-08-28T11:41:22.551Z,4.204
2022-08-28T11:46:24.616Z,4.204
2022-08-28T11:51:26.189Z,4.204
2022-08-28T11:56:29.029Z,4.206
2022-08-28T12:01:29.397Z,4.206
2022-08-28T12:06:31.476Z,4.21
2022-08-28T12:11:32.694Z,4.208
2022-08-28T12:16:34.781Z,4.208
2022-08-28T12:21:36.922Z,4.208
2022-08-28T12:26:38.281Z,4.208
2022-08-28T12:31:39.764Z,4.208
2022-08-28T12:36:41.588Z,4.208
2022-08-28T12:41:43.333Z,4.208
2022-08-28T12:46:44.732Z,4.208
2022-08-28T12:51:46.769Z,4.21
2022-08-28T12:56:48.037Z,4.212
2022-08-28T13:01:49.835Z,4.212
2022-08-28T13:06:51.102Z,4.212
2022-08-28T13:11:52.761Z,4.212
2022-08-28T13:16:54.476Z,4.212
2022-08-28T13:21:55.922Z,4.212
2022-08-28T13:26:57.249Z,4.212
2022-08-28T13:31:58.868Z,4.212
2022-08-28T13:37:00.205Z,4.212
2022-08-28T13:42:02.003Z,4.212
2022-08-28T13:47:03.814Z,4.212
2022-08-28T13:52:05.287Z,4.212
2022-08-28T13:57:07.240Z,4.214
2022-08-28T14:02:09.167Z,4.214
2022-08-28T14:07:10.863Z,4.214
2022-08-28T14:12:12.517Z,4.212
2022-08-28T14:17:14.593Z,4.21
2022-08-28T14:22:16.276Z,4.212
2022-08-28T14:27:17.915Z,4.21
2022-08-28T14:32:19.538Z,4.208
2022-08-28T14:37:21.524Z,4.208
2022-08-28T14:42:23.569Z,4.206
2022-08-28T14:47:25.297Z,4.208
2022-08-28T14:52:26.596Z,4.208
2022-08-28T14:57:28.496Z,4.206
2022-08-28T15:02:30.424Z,4.206
2022-08-28T15:07:32.392Z,4.206
2022-08-28T15:12:33.792Z,4.206
2022-08-28T15:17:35.532Z,4.208
2022-08-28T15:22:37.325Z,4.206
2022-08-28T15:27:38.727Z,4.206
2022-08-28T15:32:39.911Z,4.208
2022-08-28T15:37:41.850Z,4.206
2022-08-28T15:42:43.772Z,4.208
2022-08-28T15:47:45.609Z,4.206
2022-08-28T15:52:47.224Z,4.206
2022-08-28T15:57:49.001Z,4.206
2022-08-28T16:02:50.336Z,4.206
2022-08-28T16:07:51.534Z,4.206
2022-08-28T16:12:55.690Z,4.204
2022-08-28T16:17:54.928Z,4.204
2022-08-28T16:22:56.602Z,4.206
2022-08-28T16:27:57.902Z,4.204
2022-08-28T16:32:59.147Z,4.206
2022-08-28T16:38:01.184Z,4.206
2022-08-28T16:43:02.489Z,4.204
2022-08-28T16:58:07.640Z,4.204
2022-08-28T17:03:09.710Z,4.204
2022-08-28T17:13:12.660Z,4.202
2022-08-28T17:18:14.476Z,4.202
2022-08-28T17:28:17.688Z,4.202
2022-08-28T17:43:23.500Z,4.202
2022-08-28T17:48:25.458Z,4.202
2022-08-28T17:53:27.859Z,4.202
2022-08-28T17:58:28.858Z,4.202
2022-08-28T18:08:31.738Z,4.202
2022-08-28T18:13:33.373Z,4.202
2022-08-28T18:18:36.290Z,4.202
2022-08-28T18:23:36.380Z,4.202
2022-08-28T18:28:38.397Z,4.202
2022-08-28T18:33:39.719Z,4.204
2022-08-28T18:38:41.486Z,4.204
2022-08-28T18:43:43.585Z,4.204
2022-08-28T18:48:45.750Z,4.204
2022-08-28T18:53:47.965Z,4.204
2022-08-28T18:58:49.939Z,4.204
2022-08-28T19:03:51.985Z,4.202
2022-08-28T19:08:53.431Z,4.204
2022-08-28T19:13:54.726Z,4.204
2022-08-28T19:18:55.914Z,4.204
2022-08-28T19:23:57.988Z,4.204
2022-08-28T19:28:59.604Z,4.204
2022-08-28T19:34:01.754Z,4.204
2022-08-28T19:39:03.607Z,4.204
2022-08-28T19:44:05.437Z,4.204
2022-08-28T19:49:06.882Z,4.204
2022-08-28T19:54:08.372Z,4.204
2022-08-28T19:59:09.724Z,4.204
2022-08-28T20:04:11.722Z,4.204
2022-08-28T20:09:13.455Z,4.204
2022-08-28T20:14:15.150Z,4.202
2022-08-28T20:19:16.621Z,4.202
2022-08-28T20:24:18.717Z,4.202
2022-08-28T20:29:20.036Z,4.202
2022-08-28T20:34:21.833Z,4.202
2022-08-28T20:39:22.914Z,4.202
2022-08-28T20:44:24.801Z,4.202
2022-08-28T20:49:26.695Z,4.202
2022-08-28T20:54:28.314Z,4.202
2022-08-28T20:59:34.386Z,4.202
2022-08-28T21:04:31.084Z,4.202
2022-08-28T21:09:33.542Z,4.202
2022-08-28T21:14:34.966Z,4.202
2022-08-28T21:19:40.213Z,4.202
2022-08-28T21:24:38.667Z,4.202
2022-08-28T21:29:40.393Z,4.202
2022-08-28T21:34:42.329Z,4.202
2022-08-28T21:39:43.694Z,4.202
2022-08-28T21:44:51.191Z,4.202
2022-08-28T21:49:47.309Z,4.202
2022-08-28T21:54:48.889Z,4.202
2022-08-28T21:59:50.883Z,4.2
2022-08-28T22:14:56.171Z,4.2
2022-08-28T22:19:58.128Z,4.2
2022-08-28T22:24:59.556Z,4.2
2022-08-28T22:30:01.150Z,4.2
2022-08-28T22:35:03.001Z,4.2
2022-08-28T22:40:04.332Z,4.2
2022-08-28T22:45:06.048Z,4.2
2022-08-28T22:50:07.245Z,4.2
2022-08-28T22:55:09.126Z,4.2
2022-08-28T23:00:10.655Z,4.2
2022-08-28T23:05:12.520Z,4.2
2022-08-28T23:10:13.718Z,4.2
2022-08-28T23:15:23.133Z,4.2
2022-08-28T23:20:17.260Z,4.2
2022-08-28T23:25:18.957Z,4.2
2022-08-28T23:30:20.710Z,4.2
2022-08-28T23:35:22.596Z,4.2
2022-08-28T23:40:24.513Z,4.2
2022-08-28T23:45:25.802Z,4.2
2022-08-28T23:50:27.692Z,4.2
2022-08-28T23:55:29.027Z,4.2
